Time;durP1;ratioP1;P1;durP2;ratioP2;P2;SDS_P1;SDS_P2;PMS_P1;PMS_P2;Temp;Humidity;BMP_temperature;BMP_pressure;BME280_temperature;BME280_humidity;BME280_pressure;Samples;Min_cycle;Max_cycle;Signal;HPM_P1;HPM_P2
2023/07/11 11:35:34;;;;;;;9.45;2.72;;;29.30;89.70;;;;;;5144140;27;1359198;-81
2023/07/11 11:38:26;;;;;;;8.80;2.60;;;29.10;89.50;;;;;;5169046;27;20558;-78
2023/07/11 11:41:17;;;;;;;6.90;2.45;;;29.30;90.70;;;;;;5168837;27;20544;-81
2023/07/11 11:44:15;;;;;;;10.07;3.28;;;29.40;88.10;;;;;;5168703;27;20042;-80
2023/07/11 11:47:01;;;;;;;12.13;3.35;;;29.60;89.80;;;;;;5168748;27;20149;-79
2023/07/11 11:49:49;;;;;;;7.72;3.20;;;29.90;88.80;;;;;;5150550;27;20050;-79
2023/07/11 11:52:35;;;;;;;6.80;2.55;;;29.40;87.70;;;;;;5150388;27;20791;-79
2023/07/11 11:55:28;;;;;;;5.53;2.47;;;29.60;88.30;;;;;;5167950;27;20409;-79
2023/07/11 11:58:16;;;;;;;6.97;2.67;;;29.60;89.20;;;;;;5152934;27;20046;-80
2023/07/11 12:01:02;;;;;;;6.15;2.38;;;29.90;89.60;;;;;;5168448;27;20035;-81
2023/07/11 12:03:48;;;;;;;13.32;3.17;;;30.00;88.40;;;;;;5168497;27;20134;-81
2023/07/11 12:06:35;;;;;;;10.25;3.10;;;29.90;87.40;;;;;;5153986;27;20057;-80
2023/07/11 12:09:44;;;;;;;12.13;2.85;;;29.70;86.10;;;;;;5168095;27;20095;-81
2023/07/11 12:12:36;;;;;;;10.05;3.22;;;29.90;87.60;;;;;;5153186;27;20088;-80
2023/07/11 12:15:35;;;;;;;11.40;2.47;;;30.20;86.00;;;;;;5168507;27;20082;-81
2023/07/11 12:18:37;;;;;;;8.52;2.78;;;30.60;87.40;;;;;;5167291;27;20506;-80
2023/07/11 12:21:31;;;;;;;10.07;2.28;;;30.30;83.60;;;;;;5167580;27;20049;-79
2023/07/11 12:24:20;;;;;;;8.50;2.40;;;30.00;84.00;;;;;;5167919;27;20471;-81
2023/07/11 12:27:21;;;;;;;8.60;2.15;;;29.70;84.60;;;;;;5168397;27;20050;-80
2023/07/11 12:30:13;;;;;;;9.93;2.10;;;29.80;85.40;;;;;;5156768;27;20046;-80
2023/07/11 12:33:38;;;;;;;9.10;2.00;;;29.70;83.90;;;;;;5131441;27;20107;-78
2023/07/11 12:36:29;;;;;;;6.32;2.35;;;30.00;85.10;;;;;;5043943;28;20045;-79
2023/07/11 12:39:24;;;;;;;11.20;2.75;;;30.20;84.60;;;;;;5147296;27;20058;-79
2023/07/11 12:42:21;;;;;;;8.32;2.60;;;30.20;84.70;;;;;;5147013;27;20043;-79
2023/07/11 12:45:22;;;;;;;7.93;2.28;;;30.50;85.30;;;;;;5140174;27;20530;-80
2023/07/11 12:48:17;;;;;;;7.55;1.83;;;30.30;85.90;;;;;;5132874;27;20062;-80
2023/07/11 12:51:06;;;;;;;9.30;1.92;;;30.30;85.40;;;;;;5131781;27;20498;-80
2023/07/11 12:54:16;;;;;;;7.45;2.85;;;30.20;85.40;;;;;;5113016;27;20088;-79
2023/07/11 12:57:07;;;;;;;6.25;2.15;;;30.30;83.80;;;;;;5132285;27;20456;-80
2023/07/11 12:59:53;;;;;;;16.75;2.20;;;29.90;84.30;;;;;;5116682;27;20383;-80
2023/07/11 13:02:39;;;;;;;3.55;1.63;;;29.60;84.90;;;;;;5132761;27;20138;-79
2023/07/11 13:05:25;;;;;;;6.47;1.75;;;29.60;86.30;;;;;;5131216;27;20494;-80
2023/07/11 13:08:15;;;;;;;5.53;2.05;;;29.90;85.80;;;;;;5131508;27;20134;-80
2023/07/11 13:11:04;;;;;;;6.13;2.33;;;29.80;86.00;;;;;;5131431;27;20120;-81
2023/07/11 13:13:52;;;;;;;6.03;2.13;;;30.20;85.60;;;;;;5132169;27;20129;-79
2023/07/11 13:16:40;;;;;;;5.90;1.70;;;30.40;85.50;;;;;;5131635;27;20054;-80
2023/07/11 13:19:26;;;;;;;5.07;1.60;;;30.50;86.30;;;;;;5131440;27;20057;-80
2023/07/11 13:22:17;;;;;;;4.72;1.50;;;30.00;85.40;;;;;;5132133;27;20043;-80
2023/07/11 13:25:14;;;;;;;8.98;1.42;;;29.60;84.50;;;;;;5131617;27;20075;-80
2023/07/11 13:28:00;;;;;;;5.80;1.52;;;29.20;86.20;;;;;;5131271;27;20466;-79
2023/07/11 13:30:55;;;;;;;5.43;1.92;;;29.50;87.90;;;;;;5131387;27;20078;-80
2023/07/11 13:33:41;;;;;;;5.05;0.90;;;29.30;88.50;;;;;;5130632;27;20172;-80
2023/07/11 13:36:29;;;;;;;3.42;1.20;;;29.20;90.40;;;;;;5130955;27;20111;-80
2023/07/11 13:39:25;;;;;;;3.40;0.93;;;29.10;90.30;;;;;;5112082;27;20428;-80
2023/07/11 13:42:12;;;;;;;3.65;1.00;;;29.10;90.80;;;;;;5116043;27;20051;-80
2023/07/11 13:45:11;;;;;;;4.68;1.05;;;29.00;91.50;;;;;;5131397;27;20061;-81
2023/07/11 13:48:00;;;;;;;4.55;1.10;;;29.00;91.70;;;;;;5130960;27;20055;-80
2023/07/11 13:50:46;;;;;;;5.85;1.00;;;29.10;91.50;;;;;;5115734;27;20107;-81
2023/07/11 13:53:44;;;;;;;7.75;1.50;;;28.80;91.40;;;;;;5130781;27;20063;-80
2023/07/11 13:56:31;;;;;;;4.95;1.27;;;29.00;91.40;;;;;;5131051;27;20047;-80
2023/07/11 13:59:17;;;;;;;5.40;1.55;;;28.60;91.70;;;;;;5130472;27;20046;-79
2023/07/11 14:02:15;;;;;;;8.00;2.30;;;28.40;92.00;;;;;;5131479;27;20091;-81
2023/07/11 14:05:01;;;;;;;5.32;1.13;;;28.30;92.50;;;;;;5132088;27;20078;-81
2023/07/11 14:07:49;;;;;;;6.45;1.30;;;28.90;92.70;;;;;;5130467;27;20490;-81
2023/07/11 14:10:35;;;;;;;7.80;1.20;;;28.90;92.10;;;;;;5130754;27;20074;-82
2023/07/11 14:13:26;;;;;;;6.18;1.27;;;29.50;92.10;;;;;;5130131;27;20047;-80
2023/07/11 14:16:12;;;;;;;3.72;1.08;;;29.40;92.10;;;;;;5130843;27;20046;-80
2023/07/11 14:18:58;;;;;;;4.15;1.13;;;29.70;91.20;;;;;;5131010;27;20062;-81
2023/07/11 14:21:44;;;;;;;6.45;1.00;;;30.20;90.70;;;;;;5131231;27;20080;-80
2023/07/11 14:24:31;;;;;;;5.10;0.90;;;30.10;90.60;;;;;;5131642;27;20047;-81
2023/07/11 14:27:17;;;;;;;5.65;0.90;;;30.00;90.10;;;;;;5130676;27;20521;-81
2023/07/11 14:30:04;;;;;;;3.30;0.88;;;29.70;89.60;;;;;;5129542;27;20517;-80
2023/07/11 14:32:51;;;;;;;5.53;0.82;;;29.80;89.80;;;;;;5111312;27;20047;-80
2023/07/11 14:35:37;;;;;;;3.88;0.90;;;30.00;90.30;;;;;;5130108;27;20431;-82
2023/07/11 14:38:24;;;;;;;5.13;0.95;;;30.70;89.90;;;;;;5129722;27;20043;-82
2023/07/11 14:41:11;;;;;;;2.58;0.60;;;29.70;90.00;;;;;;5130414;27;20076;-80
2023/07/11 14:43:57;;;;;;;2.90;0.70;;;29.70;90.20;;;;;;5130293;27;20043;-81
2023/07/11 14:46:43;;;;;;;3.33;1.10;;;29.50;90.60;;;;;;5129663;27;20082;-81
2023/07/11 14:49:29;;;;;;;4.05;0.90;;;29.40;90.40;;;;;;5130227;27;20058;-80
2023/07/11 14:52:24;;;;;;;4.88;1.00;;;29.60;90.50;;;;;;5129828;27;20463;-82
2023/07/11 14:55:21;;;;;;;3.42;0.93;;;29.90;90.40;;;;;;5130193;27;20086;-81
2023/07/11 14:58:09;;;;;;;3.42;0.80;;;29.90;90.30;;;;;;5129812;27;20501;-81
2023/07/11 15:00:56;;;;;;;4.55;1.15;;;29.30;90.40;;;;;;5130283;27;20047;-79
2023/07/11 15:03:42;;;;;;;3.08;1.13;;;29.50;91.00;;;;;;5111030;27;20126;-80
2023/07/11 15:06:29;;;;;;;6.43;1.15;;;29.30;91.00;;;;;;5097658;27;20047;-81
2023/07/11 15:09:15;;;;;;;3.40;1.08;;;28.90;91.00;;;;;;5110819;27;20130;-83
2023/07/11 15:12:02;;;;;;;3.58;1.10;;;28.80;91.60;;;;;;5129271;27;20530;-82
2023/07/11 15:14:48;;;;;;;3.58;0.90;;;28.70;91.60;;;;;;5129542;27;20047;-81
2023/07/11 15:17:34;;;;;;;2.95;0.82;;;29.20;91.70;;;;;;5129646;27;20043;-79
2023/07/11 15:20:22;;;;;;;3.85;1.48;;;29.00;91.70;;;;;;5130343;27;20130;-78
2023/07/11 15:23:10;;;;;;;5.15;1.08;;;28.20;91.50;;;;;;5102756;28;20052;-81
2023/07/11 15:25:56;;;;;;;3.97;0.85;;;27.90;92.10;;;;;;5110630;28;20043;-81
2023/07/11 15:28:42;;;;;;;4.18;1.20;;;27.60;92.60;;;;;;5107688;28;20109;-79
2023/07/11 15:31:29;;;;;;;3.35;0.80;;;27.10;92.90;;;;;;5108419;28;20552;-80
2023/07/11 15:34:21;;;;;;;3.78;0.85;;;26.70;93.80;;;;;;5109966;28;20073;-79
2023/07/11 15:37:10;;;;;;;3.88;0.80;;;26.60;94.20;;;;;;5108426;28;20048;-80
2023/07/11 15:39:56;;;;;;;4.80;1.67;;;26.40;94.20;;;;;;5109616;28;20097;-80
2023/07/11 15:42:42;;;;;;;6.68;1.17;;;26.50;94.10;;;;;;5109814;28;20044;-82
2023/07/11 15:45:30;;;;;;;2.65;0.98;;;26.40;94.40;;;;;;5110381;28;20124;-81
2023/07/11 15:48:17;;;;;;;3.67;1.00;;;26.30;94.20;;;;;;5109920;28;20117;-81
2023/07/11 15:51:03;;;;;;;6.53;1.40;;;26.00;94.50;;;;;;5109883;28;20458;-83
2023/07/11 15:53:50;;;;;;;4.60;1.13;;;25.90;95.20;;;;;;5108136;28;20048;-81
2023/07/11 15:56:39;;;;;;;5.32;1.23;;;26.20;95.50;;;;;;5109543;28;20043;-80
2023/07/11 15:59:28;;;;;;;5.05;1.40;;;26.20;95.10;;;;;;5093457;28;20051;-82
2023/07/11 16:02:23;;;;;;;5.45;1.20;;;26.40;95.60;;;;;;5091159;28;20043;-82
2023/07/11 16:05:11;;;;;;;5.00;1.40;;;26.50;96.00;;;;;;5090760;28;20055;-80
2023/07/11 16:07:58;;;;;;;7.35;1.50;;;26.50;95.40;;;;;;5109671;28;20048;-80
2023/07/11 16:10:45;;;;;;;4.70;1.40;;;26.50;95.30;;;;;;5109573;28;20051;-81
2023/07/11 16:13:34;;;;;;;4.97;1.42;;;26.70;95.40;;;;;;5109072;28;20507;-79
2023/07/11 16:16:22;;;;;;;3.63;1.50;;;26.70;95.50;;;;;;5109435;28;20048;-80
2023/07/11 16:19:12;;;;;;;3.75;1.40;;;26.50;95.40;;;;;;5107681;28;20051;-81
2023/07/11 16:21:59;;;;;;;5.82;1.73;;;26.40;95.60;;;;;;5111952;28;20397;-79
2023/07/11 16:24:45;;;;;;;4.35;1.40;;;26.60;95.80;;;;;;5095190;28;20146;-81
2023/07/11 16:27:31;;;;;;;4.40;1.85;;;26.80;96.00;;;;;;5113319;28;20054;-80
2023/07/11 16:30:24;;;;;;;6.03;1.70;;;26.80;95.70;;;;;;5112920;28;20410;-81
2023/07/11 16:33:19;;;;;;;10.30;2.42;;;27.00;95.60;;;;;;5112305;28;20130;-81
2023/07/11 16:36:13;;;;;;;4.75;1.58;;;26.80;95.50;;;;;;5111581;28;20050;-81
2023/07/11 16:38:59;;;;;;;6.93;1.90;;;26.70;95.90;;;;;;5080258;28;20048;-81
2023/07/11 16:41:46;;;;;;;7.13;1.92;;;26.80;96.50;;;;;;5112740;28;20407;-81
2023/07/11 16:44:32;;;;;;;7.85;1.65;;;26.90;96.50;;;;;;5112466;28;20048;-83
2023/07/11 16:47:18;;;;;;;6.18;2.00;;;26.90;96.70;;;;;;5098273;28;20475;-82
2023/07/11 16:50:15;;;;;;;4.60;1.35;;;26.70;96.70;;;;;;5112701;28;20051;-80
2023/07/11 16:53:04;;;;;;;5.38;1.35;;;26.70;97.10;;;;;;5112850;28;20055;-82
2023/07/11 16:55:52;;;;;;;5.50;1.40;;;26.40;97.20;;;;;;5113123;28;20083;-78
2023/07/11 16:58:40;;;;;;;7.53;1.65;;;26.00;97.40;;;;;;5112382;28;20090;-79
2023/07/11 17:01:26;;;;;;;4.57;1.58;;;26.00;97.90;;;;;;5112890;28;20052;-78
2023/07/11 17:04:14;;;;;;;5.05;1.40;;;25.80;97.90;;;;;;5098092;28;20055;-80
2023/07/11 17:07:00;;;;;;;5.03;1.55;;;26.00;98.00;;;;;;5112601;28;20050;-80
2023/07/11 17:09:46;;;;;;;7.22;1.35;;;25.80;98.30;;;;;;5096766;28;20039;-80
2023/07/11 17:12:33;;;;;;;7.10;1.83;;;25.60;98.30;;;;;;5112308;28;20777;-80
2023/07/11 17:15:20;;;;;;;8.27;1.38;;;25.60;98.40;;;;;;5112385;28;20047;-80
2023/07/11 17:18:12;;;;;;;4.30;1.42;;;25.40;98.40;;;;;;5098285;28;20108;-80
2023/07/11 17:20:58;;;;;;;4.65;1.70;;;25.40;98.80;;;;;;5097281;28;20052;-81
2023/07/11 17:23:45;;;;;;;4.18;1.58;;;25.50;98.80;;;;;;5111198;28;20054;-80
2023/07/11 17:26:31;;;;;;;8.63;1.45;;;25.30;99.10;;;;;;5112016;28;20070;-80
2023/07/11 17:29:17;;;;;;;6.80;2.05;;;25.20;99.40;;;;;;5112385;28;20090;-81
2023/07/11 17:32:10;;;;;;;6.00;1.88;;;25.30;99.60;;;;;;5110124;28;20052;-80
2023/07/11 17:34:56;;;;;;;4.45;1.77;;;25.40;99.40;;;;;;5111152;28;20059;-80
2023/07/11 17:37:46;;;;;;;7.90;2.05;;;25.20;99.40;;;;;;5111839;28;20047;-81
2023/07/11 17:40:32;;;;;;;6.72;1.80;;;25.10;99.40;;;;;;5096584;28;20536;-81
2023/07/11 17:43:23;;;;;;;7.90;1.77;;;24.90;99.30;;;;;;5111656;28;20429;-81
2023/07/11 17:46:12;;;;;;;4.72;1.83;;;24.70;99.90;;;;;;5111105;28;20411;-81
2023/07/11 17:48:59;;;;;;;7.15;2.17;;;24.50;99.90;;;;;;5111220;28;20056;-81
2023/07/11 17:51:46;;;;;;;9.82;1.98;;;24.50;99.90;;;;;;5111289;28;20491;-80
2023/07/11 17:54:33;;;;;;;9.30;1.90;;;24.30;99.90;;;;;;5111023;28;20164;-81
2023/07/11 17:57:22;;;;;;;7.63;1.88;;;24.30;99.90;;;;;;5111162;28;20130;-81
2023/07/11 18:00:13;;;;;;;8.13;1.52;;;24.30;99.90;;;;;;5111342;28;20487;-81
2023/07/11 18:02:59;;;;;;;6.10;1.48;;;24.10;99.90;;;;;;5111561;28;20051;-81
2023/07/11 18:05:46;;;;;;;10.25;1.85;;;23.90;99.90;;;;;;5111430;28;20048;-81
2023/07/11 18:08:33;;;;;;;5.68;1.63;;;23.90;99.90;;;;;;5096312;28;20055;-82
2023/07/11 18:11:19;;;;;;;5.53;1.40;;;23.90;99.90;;;;;;5111588;28;20087;-84
2023/07/11 18:14:05;;;;;;;8.95;1.60;;;24.00;99.90;;;;;;5091640;28;20043;-80
2023/07/11 18:16:51;;;;;;;8.18;1.35;;;23.90;99.90;;;;;;5093177;28;20097;-79
2023/07/11 18:19:37;;;;;;;3.70;1.17;;;23.90;99.90;;;;;;5095396;28;20122;-81
2023/07/11 18:22:27;;;;;;;6.40;1.30;;;23.80;99.90;;;;;;5110289;28;20048;-80
2023/07/11 18:25:16;;;;;;;4.78;1.15;;;23.70;99.90;;;;;;5111669;28;20052;-80
2023/07/11 18:28:02;;;;;;;9.10;1.70;;;23.70;99.90;;;;;;5111545;28;20048;-80
2023/07/11 18:30:49;;;;;;;4.22;0.93;;;23.70;99.90;;;;;;5109912;28;20511;-80
2023/07/11 18:33:35;;;;;;;5.63;0.90;;;23.60;99.90;;;;;;5110966;28;20163;-78
2023/07/11 18:36:24;;;;;;;6.85;1.20;;;23.60;99.90;;;;;;5111904;28;20062;-77
2023/07/11 18:39:11;;;;;;;6.30;1.00;;;23.60;99.90;;;;;;5095999;28;20048;-78
2023/07/11 18:41:57;;;;;;;5.18;0.90;;;23.50;99.90;;;;;;5110452;28;20051;-79
2023/07/11 18:44:45;;;;;;;4.75;1.25;;;23.60;99.90;;;;;;5108755;28;20506;-79
2023/07/11 18:47:35;;;;;;;3.55;1.17;;;23.50;99.90;;;;;;5104153;28;20090;-79
2023/07/11 18:50:27;;;;;;;4.65;1.55;;;23.40;99.90;;;;;;5104776;28;20507;-79
2023/07/11 18:53:13;;;;;;;7.82;1.52;;;23.50;99.90;;;;;;5110721;28;20125;-79
2023/07/11 18:56:01;;;;;;;4.70;1.38;;;23.50;99.90;;;;;;5110131;28;20082;-79
2023/07/11 18:58:47;;;;;;;4.68;1.63;;;23.50;99.90;;;;;;5110750;28;20051;-79
2023/07/11 19:01:33;;;;;;;5.65;1.15;;;23.50;99.90;;;;;;5108685;28;20098;-79
2023/07/11 19:04:19;;;;;;;7.53;1.88;;;23.40;99.90;;;;;;5109849;28;20689;-79
2023/07/11 19:07:10;;;;;;;7.47;1.27;;;23.40;99.90;;;;;;5108559;28;20047;-79
2023/07/11 19:09:57;;;;;;;8.75;1.30;;;23.40;99.90;;;;;;5108299;28;20051;-80
2023/07/11 19:12:44;;;;;;;9.27;1.70;;;23.30;99.90;;;;;;5110217;28;20050;-80
2023/07/11 19:15:30;;;;;;;6.50;1.10;;;23.30;99.90;;;;;;5110542;28;20043;-79
2023/07/11 19:18:21;;;;;;;5.05;1.17;;;23.30;99.90;;;;;;5109500;28;20517;-79
2023/07/11 19:21:08;;;;;;;3.95;1.10;;;23.20;99.90;;;;;;5090927;28;20046;-81
2023/07/11 19:23:54;;;;;;;8.00;1.30;;;23.20;99.90;;;;;;5109075;28;20505;-80
2023/07/11 19:26:40;;;;;;;7.47;1.38;;;23.20;99.90;;;;;;5109674;28;20067;-80
2023/07/11 19:29:26;;;;;;;3.00;1.05;;;23.20;99.90;;;;;;5109210;28;20765;-80
2023/07/11 19:32:15;;;;;;;6.15;1.15;;;23.10;99.90;;;;;;5091489;28;20051;-80
2023/07/11 19:35:02;;;;;;;6.03;1.35;;;23.00;99.90;;;;;;5109831;28;20064;-80
2023/07/11 19:37:51;;;;;;;5.15;1.35;;;22.90;99.90;;;;;;5110444;28;20123;-80
2023/07/11 19:40:37;;;;;;;5.95;1.98;;;22.90;99.90;;;;;;5109723;28;20077;-80
2023/07/11 19:43:23;;;;;;;5.85;1.08;;;22.80;99.90;;;;;;5110171;28;20059;-80
2023/07/11 19:46:17;;;;;;;6.75;1.23;;;22.70;99.90;;;;;;5110220;28;20048;-80
2023/07/11 19:49:03;;;;;;;5.15;1.60;;;22.80;99.90;;;;;;5109636;28;20047;-80
2023/07/11 19:51:49;;;;;;;9.40;1.70;;;22.70;99.90;;;;;;5090408;28;20052;-80
2023/07/11 19:54:36;;;;;;;4.60;1.00;;;22.70;99.90;;;;;;5109993;28;20398;-80
2023/07/11 19:57:23;;;;;;;4.57;1.10;;;22.70;99.90;;;;;;5095199;28;20086;-80
2023/07/11 20:00:21;;;;;;;7.28;0.90;;;22.70;99.90;;;;;;5099243;28;20052;-80
2023/07/11 20:03:12;;;;;;;3.17;1.10;;;22.60;99.90;;;;;;5113875;28;20566;-81
2023/07/11 20:06:00;;;;;;;6.13;1.10;;;22.60;99.90;;;;;;5112968;28;20051;-81
2023/07/11 20:08:47;;;;;;;10.55;1.30;;;22.60;99.90;;;;;;5113907;28;20044;-79
2023/07/11 20:11:33;;;;;;;3.08;1.15;;;22.50;99.90;;;;;;5114010;28;20051;-80
2023/07/11 20:14:19;;;;;;;5.35;1.10;;;22.50;99.90;;;;;;5113090;28;20166;-80
2023/07/11 20:17:07;;;;;;;4.50;1.30;;;22.40;99.90;;;;;;5113594;28;20058;-80
2023/07/11 20:19:53;;;;;;;4.68;1.13;;;22.40;99.90;;;;;;5113389;28;20078;-81
2023/07/11 20:22:39;;;;;;;3.85;1.10;;;22.30;99.90;;;;;;5094527;28;20062;-80
2023/07/11 20:25:26;;;;;;;4.63;1.10;;;22.30;99.90;;;;;;5095053;28;20047;-79
2023/07/11 20:28:14;;;;;;;6.97;1.52;;;22.30;99.90;;;;;;5094635;28;20572;-81
2023/07/11 20:31:01;;;;;;;8.45;1.80;;;22.20;99.90;;;;;;5112392;28;20048;-81
2023/07/11 20:33:48;;;;;;;5.35;1.33;;;22.20;99.90;;;;;;5113688;28;20055;-80
2023/07/11 20:36:34;;;;;;;6.50;1.35;;;22.10;99.90;;;;;;5113238;28;20052;-81
2023/07/11 20:39:21;;;;;;;7.38;1.15;;;22.10;99.90;;;;;;5113152;28;20050;-81
2023/07/11 20:42:07;;;;;;;6.40;1.30;;;22.10;99.90;;;;;;5094632;28;20139;-80
2023/07/11 20:44:53;;;;;;;4.30;1.15;;;22.10;99.90;;;;;;5112742;28;20430;-80
2023/07/11 20:47:39;;;;;;;6.57;1.20;;;22.10;99.90;;;;;;5095543;28;20062;-80
2023/07/11 20:50:38;;;;;;;3.83;1.00;;;22.10;99.90;;;;;;5097298;28;20146;-81
2023/07/11 20:53:25;;;;;;;5.80;1.20;;;22.00;99.90;;;;;;5112799;28;20048;-80
2023/07/11 20:56:20;;;;;;;5.13;1.20;;;21.90;99.90;;;;;;5113491;28;20044;-80
2023/07/11 20:59:10;;;;;;;7.00;2.00;;;21.80;99.90;;;;;;5112261;28;20077;-79
2023/07/11 21:01:56;;;;;;;7.63;1.52;;;21.60;99.90;;;;;;5112334;28;20052;-81
2023/07/11 21:04:44;;;;;;;6.13;1.10;;;21.50;99.90;;;;;;5112452;28;20108;-80
2023/07/11 21:07:30;;;;;;;7.40;1.40;;;21.50;99.90;;;;;;5093965;28;20446;-80
2023/07/11 21:10:24;;;;;;;5.35;1.40;;;21.30;99.90;;;;;;5112715;28;20569;-78
2023/07/11 21:13:11;;;;;;;3.93;1.30;;;21.20;99.90;;;;;;5113275;28;20066;-78
2023/07/11 21:15:57;;;;;;;4.63;1.95;;;21.10;99.90;;;;;;5113207;28;20051;-79
2023/07/11 21:18:43;;;;;;;7.68;1.75;;;21.10;99.90;;;;;;5112662;28;20067;-80
2023/07/11 21:21:30;;;;;;;3.60;1.23;;;21.00;99.90;;;;;;5112716;28;20053;-79
2023/07/11 21:24:16;;;;;;;8.18;1.35;;;20.90;99.90;;;;;;5111814;28;20078;-80
2023/07/11 21:27:05;;;;;;;5.38;1.52;;;20.90;99.90;;;;;;5112550;28;20047;-78
